createdAt,value
2023-04-09T00:06:27.298Z,102213.63
2023-04-09T00:20:33.300Z,102205.63
2023-04-09T00:27:34.850Z,102198.66
2023-04-09T00:34:36.685Z,102207.22
2023-04-09T00:41:38.213Z,102199.50
2023-04-09T00:48:40.311Z,102207.63
2023-04-09T00:55:41.935Z,102206.81
2023-04-09T01:02:43.697Z,102208.59
2023-04-09T01:09:54.193Z,102210.56
2023-04-09T01:17:02.905Z,102207.25
2023-04-09T01:24:47.281Z,102200.38
2023-04-09T01:31:57.803Z,102207.72
2023-04-09T01:39:00.685Z,102213.88
2023-04-09T01:46:03.202Z,102213.22
2023-04-09T01:53:04.834Z,102218.72
2023-04-09T02:00:07.340Z,102218.00
2023-04-09T02:07:23.269Z,102222.47
2023-04-09T02:14:26.518Z,102223.16
2023-04-09T02:21:28.552Z,102231.31
2023-04-09T02:28:30.229Z,102223.41
2023-04-09T02:35:31.853Z,102223.22
2023-04-09T02:42:33.544Z,102220.81
2023-04-09T02:49:35.121Z,102225.47
2023-04-09T02:56:36.743Z,102216.69
2023-04-09T03:03:40.081Z,102220.50
2023-04-09T03:10:41.730Z,102215.13
2023-04-09T03:17:43.344Z,102222.50
2023-04-09T03:24:44.960Z,102210.84
2023-04-09T03:31:46.670Z,102212.16
2023-04-09T03:38:48.916Z,102205.03
2023-04-09T03:46:00.510Z,102221.44
2023-04-09T03:53:02.242Z,102223.28
2023-04-09T04:00:07.688Z,102220.03
2023-04-09T04:07:24.906Z,102223.91
2023-04-09T04:14:35.171Z,102220.56
2023-04-09T04:21:45.790Z,102232.38
2023-04-09T04:28:47.405Z,102235.06
2023-04-09T04:36:07.520Z,102247.44
2023-04-09T04:43:16.367Z,102243.81
2023-04-09T04:50:18.748Z,102250.16
2023-04-09T04:57:32.344Z,102242.81
2023-04-09T05:04:37.722Z,102247.94
2023-04-09T05:11:41.013Z,102253.06
2023-04-09T05:18:48.983Z,102256.31
2023-04-09T05:25:50.899Z,102256.78
2023-04-09T05:33:01.010Z,102259.44
2023-04-09T05:40:03.872Z,102260.88
2023-04-09T05:47:05.836Z,102262.78
2023-04-09T05:54:15.852Z,102259.59
2023-04-09T06:01:17.554Z,102254.81
2023-04-09T06:08:19.268Z,102257.31
2023-04-09T06:15:21.166Z,102258.31
2023-04-09T06:22:22.780Z,102264.34
2023-04-09T06:29:24.481Z,102260.34
2023-04-09T06:36:27.303Z,102257.88
2023-04-09T06:43:28.836Z,102259.66
2023-04-09T06:50:30.617Z,102273.22
2023-04-09T06:57:32.252Z,102266.94
2023-04-09T07:04:33.829Z,102283.25
2023-04-09T07:11:35.421Z,102279.19
2023-04-09T07:18:37.020Z,102287.84
2023-04-09T07:25:38.667Z,102288.66
2023-04-09T07:32:40.312Z,102289.28
2023-04-09T07:39:42.648Z,102281.94
2023-04-09T07:46:44.232Z,102281.88
2023-04-09T07:53:45.826Z,102288.41
2023-04-09T08:00:48.545Z,102281.81
2023-04-09T08:07:53.305Z,102293.63
2023-04-09T08:14:54.877Z,102293.69
2023-04-09T08:21:56.623Z,102311.53
2023-04-09T08:28:58.232Z,102298.66
2023-04-09T08:36:01.366Z,102312.22
2023-04-09T08:43:05.660Z,102305.31
2023-04-09T08:50:07.626Z,102306.66
2023-04-09T08:57:09.335Z,102297.06
2023-04-09T09:04:11.358Z,102296.66
2023-04-09T09:11:28.122Z,102295.06
2023-04-09T09:18:48.225Z,102297.09
2023-04-09T09:25:49.820Z,102293.66
2023-04-09T09:33:11.693Z,102292.34
2023-04-09T09:40:26.601Z,102295.75
2023-04-09T09:47:29.337Z,102280.03
2023-04-09T09:54:33.645Z,102272.84
2023-04-09T10:01:36.568Z,102264.34
2023-04-09T10:08:38.346Z,102260.63
2023-04-09T10:15:39.864Z,102258.38
2023-04-09T10:22:41.538Z,102257.69
2023-04-09T10:29:45.164Z,102263.94
2023-04-09T10:36:51.418Z,102259.16
2023-04-09T10:43:52.948Z,102262.19
2023-04-09T10:50:54.507Z,102253.38
2023-04-09T10:57:56.058Z,102257.38
2023-04-09T11:05:27.003Z,102245.16
2023-04-09T11:12:28.636Z,102235.81
2023-04-09T11:19:30.137Z,102232.50
2023-04-09T11:26:35.776Z,102224.56
2023-04-09T11:33:37.344Z,102219.28
2023-04-09T11:40:48.523Z,102197.97
2023-04-09T11:47:50.701Z,102199.91
2023-04-09T11:54:52.269Z,102204.25
2023-04-09T12:01:53.930Z,102208.75
2023-04-09T12:08:59.054Z,102193.31
2023-04-09T12:16:00.895Z,102194.69
2023-04-09T12:23:04.171Z,102182.09
2023-04-09T12:30:06.447Z,102179.88
2023-04-09T12:37:08.034Z,102180.88
2023-04-09T12:44:10.027Z,102171.19
2023-04-09T12:51:12.416Z,102160.97
2023-04-09T12:58:14.004Z,102151.84
2023-04-09T13:05:15.671Z,102149.59
2023-04-09T13:12:17.379Z,102149.81
2023-04-09T13:19:18.931Z,102145.31
2023-04-09T13:26:20.541Z,102134.69
2023-04-09T13:33:22.138Z,102126.84
2023-04-09T13:40:23.687Z,102133.25
2023-04-09T13:47:25.566Z,102112.38
2023-04-09T13:54:27.279Z,102112.78
2023-04-09T14:01:30.101Z,102106.97
2023-04-09T14:08:31.834Z,102104.50
2023-04-09T14:15:34.819Z,102088.84
2023-04-09T14:22:36.504Z,102094.38
2023-04-09T14:29:38.084Z,102083.94
2023-04-09T14:36:39.670Z,102080.63
2023-04-09T14:43:41.258Z,102075.69
2023-04-09T14:50:43.007Z,102060.56
2023-04-09T14:57:44.549Z,102074.41
2023-04-09T15:04:46.181Z,102062.41
2023-04-09T15:11:47.801Z,102071.81
2023-04-09T15:18:51.948Z,102079.00
2023-04-09T15:25:53.900Z,102078.41
2023-04-09T15:32:55.482Z,102076.50
2023-04-09T15:39:57.119Z,102072.09
2023-04-09T15:46:58.688Z,102075.53
2023-04-09T15:54:00.364Z,102072.72
2023-04-09T16:01:07.011Z,102076.19
2023-04-09T16:08:09.333Z,102073.84
2023-04-09T16:15:11.164Z,102071.34
2023-04-09T16:22:13.276Z,102072.72
2023-04-09T16:29:16.369Z,102070.75
2023-04-09T16:36:17.909Z,102066.94
2023-04-09T16:43:19.456Z,102075.97
2023-04-09T16:50:21.340Z,102066.19
2023-04-09T16:57:22.975Z,102057.94
2023-04-09T17:04:24.825Z,102068.09
2023-04-09T17:11:26.476Z,102067.38
2023-04-09T17:18:28.313Z,102068.97
2023-04-09T17:25:29.838Z,102079.34
2023-04-09T17:32:31.492Z,102086.69
2023-04-09T17:39:33.394Z,102089.41
2023-04-09T17:46:36.068Z,102091.56
2023-04-09T17:53:37.642Z,102093.84
2023-04-09T18:00:39.638Z,102089.28
2023-04-09T18:07:41.186Z,102100.09
2023-04-09T18:14:43.350Z,102101.41
2023-04-09T18:21:44.968Z,102097.06
2023-04-09T18:28:46.496Z,102090.63
2023-04-09T18:35:48.246Z,102096.69
2023-04-09T18:42:52.345Z,102114.19
2023-04-09T18:49:53.893Z,102123.44
2023-04-09T18:56:57.352Z,102127.09
2023-04-09T19:03:59.064Z,102124.28
2023-04-09T19:11:00.744Z,102113.94
2023-04-09T19:18:02.347Z,102132.13
2023-04-09T19:25:04.138Z,102138.47
2023-04-09T19:32:06.101Z,102137.66
2023-04-09T19:39:08.439Z,102134.50
2023-04-09T19:46:10.066Z,102132.31
2023-04-09T19:53:11.615Z,102142.38
2023-04-09T20:00:14.627Z,102134.72
2023-04-09T20:07:16.135Z,102134.81
2023-04-09T20:14:17.894Z,102147.53
2023-04-09T20:21:19.549Z,102155.78
2023-04-09T20:28:21.871Z,102150.88
2023-04-09T20:35:23.450Z,102153.97
2023-04-09T20:42:25.002Z,102144.47
2023-04-09T20:49:27.741Z,102136.63
2023-04-09T20:56:29.740Z,102137.56
2023-04-09T21:03:31.489Z,102134.44
2023-04-09T21:10:33.189Z,102132.50
2023-04-09T21:17:34.816Z,102135.63
2023-04-09T21:24:36.628Z,102134.88
2023-04-09T21:31:38.222Z,102133.53
2023-04-09T21:38:39.754Z,102119.28
2023-04-09T21:45:41.411Z,102122.47
2023-04-09T21:52:44.881Z,102119.31
2023-04-09T21:59:46.503Z,102135.28
2023-04-09T22:06:48.125Z,102138.25
2023-04-09T22:13:49.698Z,102137.19
2023-04-09T22:20:51.369Z,102129.34
2023-04-09T22:27:53.279Z,102141.22
2023-04-09T22:34:54.828Z,102140.03
2023-04-09T22:41:56.368Z,102143.38
2023-04-09T22:49:04.604Z,102151.00
2023-04-09T22:56:07.157Z,102151.31
2023-04-09T23:03:09.150Z,102166.19
2023-04-09T23:10:14.116Z,102156.59
2023-04-09T23:17:15.644Z,102141.25
2023-04-09T23:24:17.542Z,102144.13
2023-04-09T23:31:19.132Z,102145.50
2023-04-09T23:38:20.669Z,102140.59
2023-04-09T23:45:23.691Z,102137.81
2023-04-09T23:52:26.653Z,102146.41
2023-04-09T23:59:31.016Z,102134.56
